Terminal Aerodrome Forecast
Issued by NWS

Home | Current Version | Previous Version | Text Only | Print | Product List | Glossary On
Versions: 1 2 3 4 5 6 7 8 9 10 11 12 13 14 15 16 17 18 19
000
FTUS41 KBTV 010541
TAFMSS
TAF
KMSS 010541Z 0106/0206 30005KT 3SM -SN BR OVC035
      TEMPO 0106/0110 2SM -SN BR
     FM011000 34008KT P6SM BKN035 BKN070
     FM011400 34009KT P6SM SCT035 SCT200
     FM012000 32008KT P6SM BKN150 BKN200
     FM020500 04005KT P6SM OVC100=

USA.gov is the U.S. government's official web portal to all federal, state and local government web resources and services.